Time;durP1;ratioP1;P1;durP2;ratioP2;P2;SDS_P1;SDS_P2;PMS_P1;PMS_P2;Temp;Humidity;BMP_temperature;BMP_pressure;BME280_temperature;BME280_humidity;BME280_pressure;Samples;Min_cycle;Max_cycle;Signal;HPM_P1;HPM_P2
2022/09/22 00:01:39;;;;;;;;;;;;;;;12.71;62.37;102322.66;4962811;28;20293;-55
2022/09/22 00:04:06;;;;;;;;;;;;;;;12.69;62.39;102324.50;4962495;28;19921;-54
2022/09/22 00:06:33;;;;;;;;;;;;;;;12.68;62.52;102325.44;4962787;28;19933;-54
2022/09/22 00:08:59;;;;;;;;;;;;;;;12.68;62.37;102327.22;4963001;28;19925;-55
2022/09/22 00:11:27;;;;;;;;;;;;;;;12.67;62.32;102321.06;4962069;28;19926;-54
2022/09/22 00:14:03;;;;;;;;;;;;;;;12.66;62.47;102322.00;4962549;28;19918;-54
2022/09/22 00:16:39;;;;;;;;;;;;;;;12.64;62.38;102329.97;4965606;28;19981;-54
2022/09/22 00:19:05;;;;;;;;;;;;;;;12.64;62.56;102331.75;4961525;28;20076;-55
2022/09/22 00:21:31;;;;;;;;;;;;;;;12.62;62.59;102325.69;4964378;28;20468;-54
2022/09/22 00:23:56;;;;;;;;;;;;;;;12.62;62.66;102329.19;4961777;28;19973;-55
2022/09/22 00:26:22;;;;;;;;;;;;;;;12.62;62.64;102330.97;4962035;28;19918;-54
2022/09/22 00:28:50;;;;;;;;;;;;;;;12.63;62.66;102333.53;4961142;28;19976;-54
2022/09/22 00:31:16;;;;;;;;;;;;;;;12.64;62.56;102326.47;4961977;28;20379;-54
2022/09/22 00:33:42;;;;;;;;;;;;;;;12.65;62.56;102328.19;4963128;28;20390;-54
2022/09/22 00:36:08;;;;;;;;;;;;;;;12.63;62.70;102325.63;4961823;28;19949;-54
2022/09/22 00:38:34;;;;;;;;;;;;;;;12.63;62.58;102324.75;4962428;28;19918;-54
2022/09/22 00:41:00;;;;;;;;;;;;;;;12.62;62.86;102328.34;4965027;28;19918;-54
2022/09/22 00:43:27;;;;;;;;;;;;;;;12.61;62.76;102326.63;4970345;28;20008;-54
2022/09/22 00:45:55;;;;;;;;;;;;;;;12.60;62.81;102320.47;4963535;28;19930;-54
2022/09/22 00:48:22;;;;;;;;;;;;;;;12.61;62.92;102323.97;4968788;28;19927;-56
2022/09/22 00:50:49;;;;;;;;;;;;;;;12.60;62.80;102324.91;4962712;28;20009;-54
2022/09/22 00:53:15;;;;;;;;;;;;;;;12.59;62.94;102329.31;4960973;28;19922;-55
2022/09/22 00:55:53;;;;;;;;;;;;;;;12.60;62.89;102324.91;4963948;28;19930;-54
2022/09/22 00:58:20;;;;;;;;;;;;;;;12.59;62.78;102323.19;4961368;28;19922;-54
2022/09/22 01:00:45;;;;;;;;;;;;;;;12.55;62.83;102322.44;4962646;28;19922;-54
2022/09/22 01:03:13;;;;;;;;;;;;;;;12.53;62.98;102323.41;4963984;28;19941;-54
2022/09/22 01:05:39;;;;;;;;;;;;;;;12.50;62.88;102319.97;4958335;28;19918;-54
2022/09/22 01:08:05;;;;;;;;;;;;;;;12.46;62.94;102323.69;4960308;28;19926;-56
2022/09/22 01:10:31;;;;;;;;;;;;;;;12.43;62.96;102315.00;4960336;28;21574;-54
2022/09/22 01:13:19;;;;;;;;;;;;;;;12.41;63.03;102314.19;4962031;28;19988;-54
2022/09/22 01:15:53;;;;;;;;;;;;;;;12.37;63.08;102316.13;4956507;28;19926;-54
2022/09/22 01:18:24;;;;;;;;;;;;;;;12.34;63.11;102313.59;4961288;28;20409;-55
2022/09/22 01:20:52;;;;;;;;;;;;;;;12.30;63.08;102307.59;4960987;28;19930;-54
2022/09/22 01:23:36;;;;;;;;;;;;;;;12.28;63.09;102312.06;4958403;28;19921;-55
2022/09/22 01:26:13;;;;;;;;;;;;;;;12.25;63.22;102317.47;4960616;28;19937;-54
2022/09/22 01:28:51;;;;;;;;;;;;;;;12.20;63.16;102309.72;4960693;28;19918;-54
2022/09/22 01:31:21;;;;;;;;;;;;;;;12.19;63.17;102315.06;4959623;28;20013;-54
2022/09/22 01:34:02;;;;;;;;;;;;;;;12.15;63.24;102317.00;4962756;28;20032;-55
2022/09/22 01:36:41;;;;;;;;;;;;;;;12.10;63.11;102313.66;4961064;28;19930;-54
2022/09/22 01:39:09;;;;;;;;;;;;;;;12.07;63.22;102308.50;4959565;28;19918;-54
2022/09/22 01:41:34;;;;;;;;;;;;;;;12.02;63.34;102308.69;4968222;28;19973;-54
2022/09/22 01:44:03;;;;;;;;;;;;;;;11.99;63.08;102305.31;4968490;28;19918;-54
2022/09/22 01:46:33;;;;;;;;;;;;;;;11.96;63.17;102308.88;4968034;28;19984;-56
2022/09/22 01:49:01;;;;;;;;;;;;;;;11.90;63.48;102302.06;4967134;28;19918;-54
2022/09/22 01:51:29;;;;;;;;;;;;;;;11.87;63.32;102302.16;4967088;28;19960;-55
2022/09/22 01:54:01;;;;;;;;;;;;;;;11.84;63.32;102304.94;4966929;28;19922;-54
2022/09/22 01:56:29;;;;;;;;;;;;;;;11.78;63.32;102305.16;4961520;28;19921;-54
2022/09/22 01:58:58;;;;;;;;;;;;;;;11.70;63.45;102313.38;4959864;28;19972;-54
2022/09/22 02:01:27;;;;;;;;;;;;;;;11.62;63.52;102306.66;4960561;28;19922;-55
2022/09/22 02:04:05;;;;;;;;;;;;;;;11.57;63.85;102306.84;4961479;28;19918;-54
2022/09/22 02:06:33;;;;;;;;;;;;;;;11.52;63.89;102304.38;4961313;28;19922;-54
2022/09/22 02:09:01;;;;;;;;;;;;;;;11.48;63.76;102302.75;4959369;28;20013;-54
2022/09/22 02:11:26;;;;;;;;;;;;;;;11.46;64.00;102304.59;4958785;28;19922;-54
2022/09/22 02:13:51;;;;;;;;;;;;;;;11.45;63.99;102308.13;4959338;28;19918;-54
2022/09/22 02:16:18;;;;;;;;;;;;;;;11.44;63.82;102306.41;4959795;28;20115;-53
2022/09/22 02:18:49;;;;;;;;;;;;;;;11.44;63.87;102303.78;4961866;28;19922;-57
2022/09/22 02:21:15;;;;;;;;;;;;;;;11.44;63.98;102309.06;4961984;28;19933;-54
2022/09/22 02:23:41;;;;;;;;;;;;;;;11.44;63.97;102306.41;4959817;28;19930;-54
2022/09/22 02:26:07;;;;;;;;;;;;;;;11.43;63.92;102309.97;4955966;28;19929;-56
2022/09/22 02:28:34;;;;;;;;;;;;;;;11.42;63.93;102306.47;4959387;28;19922;-54
2022/09/22 02:31:00;;;;;;;;;;;;;;;11.42;63.73;102314.38;4963173;28;20345;-54
2022/09/22 02:33:26;;;;;;;;;;;;;;;11.39;63.63;102311.00;4962718;28;19977;-54
2022/09/22 02:36:01;;;;;;;;;;;;;;;11.37;63.88;102307.56;4964716;28;20306;-54
2022/09/22 02:38:43;;;;;;;;;;;;;;;11.35;63.77;102312.03;4964440;28;19976;-54
2022/09/22 02:41:17;;;;;;;;;;;;;;;11.32;63.77;102307.75;4960197;28;20416;-54
2022/09/22 02:43:45;;;;;;;;;;;;;;;11.32;63.60;102306.84;4961106;28;20032;-54
2022/09/22 02:46:24;;;;;;;;;;;;;;;11.28;63.83;102312.22;4960712;28;19925;-54
2022/09/22 02:48:51;;;;;;;;;;;;;;;11.23;63.76;102308.94;4971574;28;20188;-54
2022/09/22 02:51:17;;;;;;;;;;;;;;;11.19;63.96;102304.66;4962473;28;19928;-54
2022/09/22 02:53:43;;;;;;;;;;;;;;;11.15;63.89;102303.03;4962746;28;19918;-54
2022/09/22 02:56:09;;;;;;;;;;;;;;;11.13;63.98;102302.25;4965096;28;19974;-55
2022/09/22 02:58:34;;;;;;;;;;;;;;;11.10;64.04;102311.13;4960174;28;19969;-54
2022/09/22 03:00:59;;;;;;;;;;;;;;;11.07;64.19;102308.59;4963750;28;20293;-54
2022/09/22 03:03:24;;;;;;;;;;;;;;;11.07;64.11;102297.19;4971202;28;19936;-54
2022/09/22 03:05:50;;;;;;;;;;;;;;;11.07;64.21;102300.69;4967865;28;19965;-54
2022/09/22 03:08:15;;;;;;;;;;;;;;;11.06;64.05;102295.47;4964274;28;19973;-54
2022/09/22 03:10:40;;;;;;;;;;;;;;;11.07;64.19;102291.94;4967005;28;19949;-54
2022/09/22 03:13:06;;;;;;;;;;;;;;;11.05;64.21;102285.84;4967428;28;19930;-55
2022/09/22 03:15:31;;;;;;;;;;;;;;;11.05;64.13;102286.69;4968649;28;19922;-55
2022/09/22 03:17:57;;;;;;;;;;;;;;;11.06;64.16;102287.56;4964708;28;19933;-55
2022/09/22 03:20:22;;;;;;;;;;;;;;;11.08;64.03;102283.13;4969455;28;20397;-54
2022/09/22 03:22:47;;;;;;;;;;;;;;;11.12;64.27;102289.97;4965372;28;20068;-54
2022/09/22 03:25:13;;;;;;;;;;;;;;;11.13;64.06;102287.31;4968763;28;20621;-54
2022/09/22 03:27:38;;;;;;;;;;;;;;;11.15;64.15;102284.59;4963796;28;19962;-55
2022/09/22 03:30:05;;;;;;;;;;;;;;;11.18;64.09;102295.03;4960842;28;19991;-54
2022/09/22 03:32:30;;;;;;;;;;;;;;;11.19;63.99;102283.59;4964800;28;20027;-54
2022/09/22 03:34:56;;;;;;;;;;;;;;;11.20;64.00;102287.94;4963345;28;20013;-55
2022/09/22 03:37:21;;;;;;;;;;;;;;;11.19;63.77;102288.84;4967652;28;19930;-54
2022/09/22 03:39:46;;;;;;;;;;;;;;;11.18;63.99;102289.78;4962083;28;19965;-55
2022/09/22 03:42:12;;;;;;;;;;;;;;;11.15;63.93;102299.56;4968504;28;20264;-54
2022/09/22 03:44:37;;;;;;;;;;;;;;;11.11;63.98;102298.81;4972612;28;20290;-54
2022/09/22 03:47:03;;;;;;;;;;;;;;;11.07;63.72;102305.09;4964218;28;19981;-55
2022/09/22 03:49:28;;;;;;;;;;;;;;;11.02;63.89;102305.28;4962336;28;19969;-54
2022/09/22 03:51:53;;;;;;;;;;;;;;;11.01;63.93;102297.41;4961638;28;19969;-54
2022/09/22 03:54:20;;;;;;;;;;;;;;;10.97;63.90;102294.88;4972976;28;20008;-54
2022/09/22 03:56:45;;;;;;;;;;;;;;;10.96;63.92;102293.19;4970644;28;20025;-54
2022/09/22 03:59:11;;;;;;;;;;;;;;;10.92;63.70;102288.91;4966833;28;20461;-57
2022/09/22 04:01:37;;;;;;;;;;;;;;;10.92;63.76;102291.56;4967686;28;19926;-54
2022/09/22 04:04:02;;;;;;;;;;;;;;;10.90;63.78;102285.47;4972200;28;19925;-55
2022/09/22 04:06:27;;;;;;;;;;;;;;;10.87;63.70;102290.84;4969487;28;20374;-54
2022/09/22 04:08:53;;;;;;;;;;;;;;;10.85;63.77;102283.91;4970415;28;19965;-54
2022/09/22 04:11:18;;;;;;;;;;;;;;;10.81;63.87;102280.53;4972191;28;19922;-54
2022/09/22 04:13:43;;;;;;;;;;;;;;;10.79;63.94;102285.00;4969476;28;19929;-54
2022/09/22 04:16:08;;;;;;;;;;;;;;;10.79;63.68;102277.09;4971366;28;19944;-55
2022/09/22 04:18:38;;;;;;;;;;;;;;;10.78;63.77;102280.63;4968821;28;20001;-55
2022/09/22 04:21:03;;;;;;;;;;;;;;;10.77;63.81;102278.91;4970987;28;19944;-55
2022/09/22 04:23:28;;;;;;;;;;;;;;;10.75;63.91;102280.72;4968799;28;20020;-55
2022/09/22 04:25:54;;;;;;;;;;;;;;;10.72;63.82;102286.97;4969984;28;19926;-54
2022/09/22 04:28:19;;;;;;;;;;;;;;;10.68;63.78;102283.56;4970459;28;19926;-55
2022/09/22 04:30:45;;;;;;;;;;;;;;;10.62;63.76;102278.53;4969307;28;19930;-55
2022/09/22 04:33:11;;;;;;;;;;;;;;;10.57;63.69;102277.78;4969471;28;19922;-54
2022/09/22 04:35:36;;;;;;;;;;;;;;;10.54;63.83;102282.31;4971267;28;19926;-54
2022/09/22 04:38:01;;;;;;;;;;;;;;;10.54;63.74;102283.16;4969921;28;19922;-54
2022/09/22 04:40:27;;;;;;;;;;;;;;;10.52;63.93;102280.59;4970420;28;19954;-53
2022/09/22 04:42:52;;;;;;;;;;;;;;;10.51;63.73;102278.03;4970616;28;19922;-54
2022/09/22 04:45:18;;;;;;;;;;;;;;;10.49;63.75;102279.84;4970396;28;19985;-54
2022/09/22 04:47:50;;;;;;;;;;;;;;;10.47;63.83;102276.38;4970355;28;20387;-54
2022/09/22 04:50:16;;;;;;;;;;;;;;;10.47;63.84;102281.66;4969857;28;20452;-54
2022/09/22 04:52:49;;;;;;;;;;;;;;;10.45;63.86;102283.47;4970093;28;19965;-56
2022/09/22 04:55:15;;;;;;;;;;;;;;;10.44;63.70;102292.28;4970754;28;20028;-54
2022/09/22 04:57:47;;;;;;;;;;;;;;;10.37;63.62;102291.59;4971459;28;19936;-54
2022/09/22 05:00:13;;;;;;;;;;;;;;;10.30;63.70;102290.91;4968488;28;19965;-54
2022/09/22 05:02:38;;;;;;;;;;;;;;;10.22;63.91;102292.91;4971052;28;19926;-54
2022/09/22 05:05:04;;;;;;;;;;;;;;;10.20;64.05;102302.66;4970953;28;19972;-54
2022/09/22 05:07:29;;;;;;;;;;;;;;;10.20;64.12;102294.75;4970052;28;19914;-54
2022/09/22 05:09:55;;;;;;;;;;;;;;;10.19;64.29;102295.66;4966849;28;20407;-54
2022/09/22 05:12:20;;;;;;;;;;;;;;;10.20;64.33;102292.13;4969656;28;19927;-54
2022/09/22 05:14:45;;;;;;;;;;;;;;;10.22;64.20;102295.53;4970431;28;20365;-54
2022/09/22 05:17:11;;;;;;;;;;;;;;;10.23;64.20;102305.16;4969663;28;20260;-54
2022/09/22 05:19:36;;;;;;;;;;;;;;;10.26;64.36;102310.34;4972290;28;19957;-54
2022/09/22 05:22:01;;;;;;;;;;;;;;;10.27;64.25;102306.78;4963661;28;19922;-54
2022/09/22 05:24:27;;;;;;;;;;;;;;;10.30;64.24;102305.81;4968298;28;19937;-54
2022/09/22 05:26:52;;;;;;;;;;;;;;;10.33;64.27;102306.63;4968439;28;19928;-54
2022/09/22 05:29:18;;;;;;;;;;;;;;;10.35;64.21;102296.91;4965794;28;19972;-56
2022/09/22 05:31:44;;;;;;;;;;;;;;;10.36;64.17;102295.97;4971050;28;19918;-54
2022/09/22 05:34:10;;;;;;;;;;;;;;;10.39;64.22;102302.06;4967254;28;19922;-54
2022/09/22 05:36:35;;;;;;;;;;;;;;;10.38;64.21;102293.34;4967479;28;19933;-54
2022/09/22 05:39:01;;;;;;;;;;;;;;;10.39;64.11;102299.44;4964141;28;19926;-55
2022/09/22 05:41:26;;;;;;;;;;;;;;;10.42;64.33;102299.34;4970428;28;19930;-55
2022/09/22 05:43:51;;;;;;;;;;;;;;;10.45;64.31;102299.25;4972406;28;19965;-54
2022/09/22 05:46:17;;;;;;;;;;;;;;;10.47;64.11;102307.97;5120045;23;19992;-54
2022/09/22 05:48:42;;;;;;;;;;;;;;;10.50;64.06;102307.88;4991682;28;19933;-54
2022/09/22 05:51:07;;;;;;;;;;;;;;;10.52;64.25;102300.78;4980124;28;19930;-54
2022/09/22 05:53:32;;;;;;;;;;;;;;;10.55;64.11;102299.84;4987801;28;20381;-56
2022/09/22 05:55:59;;;;;;;;;;;;;;;10.55;63.93;102305.94;4984483;28;20339;-53
2022/09/22 05:58:24;;;;;;;;;;;;;;;10.56;64.11;102297.13;4970719;28;19930;-54
2022/09/22 06:00:49;;;;;;;;;;;;;;;10.58;64.13;102305.84;4971018;28;19929;-54
2022/09/22 06:03:15;;;;;;;;;;;;;;;10.61;64.13;102303.13;4966957;28;19973;-54
2022/09/22 06:05:40;;;;;;;;;;;;;;;10.63;64.09;102309.19;4974649;28;19926;-55
2022/09/22 06:08:06;;;;;;;;;;;;;;;10.65;63.94;102301.25;4975751;28;19918;-55
2022/09/22 06:10:33;;;;;;;;;;;;;;;10.67;64.04;102310.78;4973460;28;20021;-54
2022/09/22 06:13:03;;;;;;;;;;;;;;;10.68;63.98;102307.25;4971027;28;20017;-53
2022/09/22 06:15:29;;;;;;;;;;;;;;;10.68;64.04;102312.50;4970134;28;20008;-54
2022/09/22 06:17:55;;;;;;;;;;;;;;;10.70;64.18;102311.59;4959381;28;19930;-55
2022/09/22 06:20:21;;;;;;;;;;;;;;;10.72;64.15;102317.69;4972844;28;19922;-55
2022/09/22 06:22:47;;;;;;;;;;;;;;;10.73;64.19;102309.75;4969710;28;19933;-54
2022/09/22 06:25:13;;;;;;;;;;;;;;;10.77;64.20;102318.41;4965023;28;19945;-53
2022/09/22 06:27:39;;;;;;;;;;;;;;;10.80;64.15;102320.94;4966651;28;20389;-54
2022/09/22 06:30:04;;;;;;;;;;;;;;;10.82;64.13;102314.69;4966104;28;20415;-53
2022/09/22 06:32:31;;;;;;;;;;;;;;;10.84;64.20;102322.53;4966534;28;19977;-53
2022/09/22 06:35:01;;;;;;;;;;;;;;;10.86;64.18;102314.59;4968482;28;20452;-53
2022/09/22 06:37:27;;;;;;;;;;;;;;;10.87;64.18;102314.53;4968535;28;20337;-53
2022/09/22 06:39:53;;;;;;;;;;;;;;;10.88;64.11;102318.06;4969304;28;20005;-53
2022/09/22 06:42:18;;;;;;;;;;;;;;;10.90;64.24;102311.81;4972182;28;20005;-53
2022/09/22 06:44:44;;;;;;;;;;;;;;;10.93;64.20;102311.72;4978350;28;19918;-53
2022/09/22 06:47:11;;;;;;;;;;;;;;;10.96;64.07;102321.28;4975430;28;20385;-54
2022/09/22 06:49:36;;;;;;;;;;;;;;;10.99;64.22;102321.19;4976195;28;20199;-53
2022/09/22 06:52:02;;;;;;;;;;;;;;;11.02;64.29;102320.19;4971915;28;19922;-53
2022/09/22 06:54:27;;;;;;;;;;;;;;;11.05;64.31;102325.38;4975584;28;20393;-54
2022/09/22 06:56:52;;;;;;;;;;;;;;;11.07;64.27;102323.53;4970736;28;19961;-53
2022/09/22 06:59:18;;;;;;;;;;;;;;;11.10;64.09;102323.44;4977817;28;19957;-53
2022/09/22 07:01:44;;;;;;;;;;;;;;;11.13;64.32;102328.59;4976139;28;19926;-55
2022/09/22 07:04:10;;;;;;;;;;;;;;;11.13;64.36;102321.56;4978597;28;20018;-54
2022/09/22 07:06:36;;;;;;;;;;;;;;;11.17;64.46;102327.56;4976853;28;20416;-54
2022/09/22 07:09:02;;;;;;;;;;;;;;;11.21;64.56;102316.03;4972959;28;20036;-53
2022/09/22 07:11:27;;;;;;;;;;;;;;;11.23;64.55;102322.09;4974069;28;19926;-53
2022/09/22 07:13:53;;;;;;;;;;;;;;;11.28;64.58;102329.84;4976469;28;20456;-53
2022/09/22 07:16:19;;;;;;;;;;;;;;;11.31;64.74;102326.22;4972637;28;19973;-55
2022/09/22 07:18:46;;;;;;;;;;;;;;;11.33;64.50;102324.41;4975914;28;20009;-53
2022/09/22 07:21:13;;;;;;;;;;;;;;;11.37;64.74;102331.28;4971851;28;19914;-53
2022/09/22 07:23:40;;;;;;;;;;;;;;;11.39;64.59;102319.75;4973477;28;19976;-54
2022/09/22 07:26:07;;;;;;;;;;;;;;;11.44;64.65;102324.88;4975678;28;19965;-55
2022/09/22 07:28:33;;;;;;;;;;;;;;;11.47;64.67;102324.75;4975219;28;19922;-55
2022/09/22 07:31:17;;;;;;;;;;;;;;;11.49;64.77;102325.56;4971929;28;19925;-53
2022/09/22 07:33:43;;;;;;;;;;;;;;;11.53;64.69;102327.19;4972921;28;19926;-53
2022/09/22 07:36:10;;;;;;;;;;;;;;;11.58;64.91;102329.66;4976091;28;19968;-53
2022/09/22 07:38:36;;;;;;;;;;;;;;;11.62;64.73;102319.84;4973761;28;19926;-55
2022/09/22 07:41:03;;;;;;;;;;;;;;;11.65;64.70;102325.84;4969211;28;19921;-54
2022/09/22 07:43:29;;;;;;;;;;;;;;;11.69;64.74;102321.34;4975041;28;19918;-53
2022/09/22 07:45:56;;;;;;;;;;;;;;;11.74;64.90;102327.28;4975513;28;19922;-53
2022/09/22 07:48:40;;;;;;;;;;;;;;;11.78;64.81;102323.63;4988498;28;19968;-53
2022/09/22 07:51:10;;;;;;;;;;;;;;;11.83;64.93;102323.44;4974951;28;19918;-53
2022/09/22 07:53:38;;;;;;;;;;;;;;;11.89;64.79;102328.50;4973484;28;19944;-53
2022/09/22 07:56:11;;;;;;;;;;;;;;;11.95;64.75;102324.78;4971910;28;19930;-54
2022/09/22 07:58:50;;;;;;;;;;;;;;;11.99;64.73;102326.41;4971095;28;20412;-53
2022/09/22 08:01:16;;;;;;;;;;;;;;;12.06;64.73;102334.94;4971461;28;19985;-55
2022/09/22 08:03:41;;;;;;;;;;;;;;;12.11;64.86;102323.28;4969827;28;19949;-53
2022/09/22 08:06:09;;;;;;;;;;;;;;;12.14;64.59;102323.19;4973145;28;19925;-53
2022/09/22 08:08:52;;;;;;;;;;;;;;;12.18;64.79;102322.13;4971166;28;19957;-55
2022/09/22 08:11:19;;;;;;;;;;;;;;;12.25;64.48;102324.53;4966167;28;19957;-53
2022/09/22 08:13:52;;;;;;;;;;;;;;;12.30;64.55;102333.13;4973162;28;19918;-53
2022/09/22 08:16:18;;;;;;;;;;;;;;;12.34;64.65;102330.31;4971995;28;19922;-53
2022/09/22 08:18:43;;;;;;;;;;;;;;;12.39;64.59;102327.47;4980679;28;20021;-53
2022/09/22 08:21:09;;;;;;;;;;;;;;;12.43;64.59;102329.09;4976263;28;20020;-53
2022/09/22 08:23:36;;;;;;;;;;;;;;;12.47;64.27;102325.41;4971744;28;20419;-53
2022/09/22 08:26:05;;;;;;;;;;;;;;;12.52;64.37;102332.25;4970979;28;20291;-53
2022/09/22 08:28:30;;;;;;;;;;;;;;;12.57;64.31;102335.59;4986126;28;19922;-53
2022/09/22 08:30:57;;;;;;;;;;;;;;;12.61;64.24;102335.38;4971724;28;19921;-54
2022/09/22 08:33:23;;;;;;;;;;;;;;;12.65;64.02;102331.72;4988404;28;19932;-54
2022/09/22 08:36:01;;;;;;;;;;;;;;;12.73;64.07;102331.38;4971190;28;19926;-53
2022/09/22 08:38:27;;;;;;;;;;;;;;;12.78;63.80;102333.84;4971931;28;20009;-54
2022/09/22 08:40:58;;;;;;;;;;;;;;;12.81;63.78;102333.72;4972341;28;19978;-53
2022/09/22 08:43:23;;;;;;;;;;;;;;;12.84;63.49;102333.59;4973695;28;19921;-53
2022/09/22 08:45:49;;;;;;;;;;;;;;;12.87;63.61;102332.59;4975356;28;19930;-53
2022/09/22 08:53:55;;;;;;;;;;;;;;;12.99;63.41;102333.88;4970942;28;19952;-54
2022/09/22 08:56:30;;;;;;;;;;;;;;;13.05;63.29;102336.22;4976988;28;20020;-53
2022/09/22 08:59:07;;;;;;;;;;;;;;;13.08;63.06;102336.94;4976161;28;19921;-53
2022/09/22 09:01:41;;;;;;;;;;;;;;;13.11;62.87;102339.47;4988667;28;19953;-53
2022/09/22 09:04:16;;;;;;;;;;;;;;;13.17;62.85;102340.13;4974353;28;20197;-53
2022/09/22 09:07:03;;;;;;;;;;;;;;;13.19;62.80;102333.84;4970509;28;19950;-53
2022/09/22 09:09:39;;;;;;;;;;;;;;;13.23;62.50;102329.31;4974935;28;20290;-55
2022/09/22 09:12:40;;;;;;;;;;;;;;;13.29;62.32;102336.94;4970551;28;20012;-53
2022/09/22 09:15:14;;;;;;;;;;;;;;;13.34;62.13;102327.03;4911264;29;19933;-55
2022/09/22 09:17:43;;;;;;;;;;;;;;;13.38;62.01;102333.91;4958996;28;19930;-54
2022/09/22 09:20:15;;;;;;;;;;;;;;;13.42;61.65;102334.66;4970444;28;20289;-53
2022/09/22 09:22:45;;;;;;;;;;;;;;;13.46;61.56;102330.09;4972152;28;19918;-53
2022/09/22 09:25:16;;;;;;;;;;;;;;;13.47;61.39;102331.81;4970578;28;19927;-53
2022/09/22 09:27:43;;;;;;;;;;;;;;;13.50;61.19;102334.31;4970217;28;20457;-53
2022/09/22 09:30:16;;;;;;;;;;;;;;;13.53;61.05;102328.91;4971867;28;20396;-53
2022/09/22 09:32:42;;;;;;;;;;;;;;;13.56;60.76;102326.09;4971002;28;20385;-54
2022/09/22 09:35:13;;;;;;;;;;;;;;;13.57;60.58;102328.69;4974777;28;19918;-54
2022/09/22 09:37:39;;;;;;;;;;;;;;;13.60;60.54;102325.03;4970595;28;19922;-53
2022/09/22 09:40:07;;;;;;;;;;;;;;;13.63;60.52;102319.63;4971413;28;19977;-56
2022/09/22 09:42:34;;;;;;;;;;;;;;;13.66;60.44;102322.13;4969421;28;19918;-53
2022/09/22 09:45:01;;;;;;;;;;;;;;;13.69;60.19;102324.63;4969791;28;20342;-53
2022/09/22 09:47:46;;;;;;;;;;;;;;;13.73;60.04;102328.00;4970895;28;19933;-53
2022/09/22 09:50:12;;;;;;;;;;;;;;;13.76;59.76;102327.00;4973763;28;20369;-53
2022/09/22 09:52:38;;;;;;;;;;;;;;;13.80;59.75;102318.84;4973323;28;19926;-53
2022/09/22 09:55:15;;;;;;;;;;;;;;;13.87;59.24;102324.69;4973562;28;19922;-54
2022/09/22 09:57:59;;;;;;;;;;;;;;;13.90;58.88;102313.97;4966172;28;20088;-55
2022/09/22 10:00:30;;;;;;;;;;;;;;;13.92;58.86;102319.19;4967154;28;19926;-53
2022/09/22 10:03:02;;;;;;;;;;;;;;;13.94;58.73;102319.97;4966816;28;20119;-53
2022/09/22 10:05:28;;;;;;;;;;;;;;;13.95;58.49;102314.63;4969943;28;19921;-53
2022/09/22 10:08:00;;;;;;;;;;;;;;;13.99;58.39;102317.97;4966465;28;19918;-54
2022/09/22 10:10:31;;;;;;;;;;;;;;;14.02;58.12;102317.84;4969938;28;19937;-55
2022/09/22 10:13:02;;;;;;;;;;;;;;;14.06;58.04;102307.97;4970279;28;20017;-53
2022/09/22 10:15:28;;;;;;;;;;;;;;;14.08;57.99;102308.75;4971174;28;19929;-53
2022/09/22 10:17:53;;;;;;;;;;;;;;;14.09;57.99;102311.31;4967189;28;19925;-53
2022/09/22 10:20:22;;;;;;;;;;;;;;;14.12;57.87;102307.69;4967931;28;20385;-53
2022/09/22 10:22:48;;;;;;;;;;;;;;;14.14;57.68;102305.81;4968044;28;19914;-53
2022/09/22 10:25:31;;;;;;;;;;;;;;;14.16;57.56;102301.28;4971035;28;19917;-54
2022/09/22 10:28:12;;;;;;;;;;;;;;;14.22;57.50;102297.50;4968736;28;20117;-54
2022/09/22 10:30:39;;;;;;;;;;;;;;;14.28;57.36;102303.38;4969555;28;19918;-54
2022/09/22 10:33:05;;;;;;;;;;;;;;;14.36;57.01;102299.47;4969164;28;20417;-54
2022/09/22 10:35:32;;;;;;;;;;;;;;;14.43;56.88;102295.59;4973098;28;19922;-53
2022/09/22 10:38:05;;;;;;;;;;;;;;;14.46;56.77;102296.31;4969925;28;20380;-53
2022/09/22 10:40:31;;;;;;;;;;;;;;;14.53;56.66;102296.84;4966895;28;19918;-53
2022/09/22 10:42:58;;;;;;;;;;;;;;;14.61;56.31;102288.53;4968295;28;20448;-54
2022/09/22 10:45:47;;;;;;;;;;;;;;;14.71;55.93;102299.53;4969912;28;20309;-53
2022/09/22 10:48:26;;;;;;;;;;;;;;;14.79;55.78;102305.31;4969881;28;20049;-53
2022/09/22 10:51:01;;;;;;;;;;;;;;;14.86;55.72;102308.50;4967939;28;20017;-53
2022/09/22 10:53:48;;;;;;;;;;;;;;;14.90;55.66;102294.16;4965943;28;19924;-53
2022/09/22 10:56:26;;;;;;;;;;;;;;;14.96;55.62;102300.94;4967187;28;19930;-53
2022/09/22 10:59:04;;;;;;;;;;;;;;;15.00;55.74;102294.56;4967012;28;20350;-53
2022/09/22 11:01:49;;;;;;;;;;;;;;;15.08;55.66;102295.88;4969490;28;19959;-53
2022/09/22 11:04:14;;;;;;;;;;;;;;;15.20;55.37;102291.69;4965640;28;20214;-54
2022/09/22 11:12:22;;;;;;;;;;;;;;;15.44;54.77;102301.06;4969357;28;19940;-53
2022/09/22 11:14:51;;;;;;;;;;;;;;;15.46;54.65;102292.13;4977387;28;19918;-53
2022/09/22 11:17:19;;;;;;;;;;;;;;;15.47;54.59;102293.84;4968678;28;20381;-54
2022/09/22 11:20:04;;;;;;;;;;;;;;;15.45;54.62;102287.75;4968026;28;19918;-54
2022/09/22 11:22:35;;;;;;;;;;;;;;;15.42;54.67;102287.91;4969039;28;19914;-53
2022/09/22 11:25:20;;;;;;;;;;;;;;;15.39;54.66;102290.72;4968576;28;19930;-53
2022/09/22 11:28:12;;;;;;;;;;;;;;;15.36;54.89;102290.88;4967189;28;20404;-53
2022/09/22 11:30:44;;;;;;;;;;;;;;;15.35;54.69;102283.88;4972360;28;19918;-54
2022/09/22 11:33:19;;;;;;;;;;;;;;;15.35;54.67;102283.88;4972866;28;19977;-53
2022/09/22 11:35:57;;;;;;;;;;;;;;;15.34;54.52;102285.66;4974034;28;19921;-53
2022/09/22 11:38:30;;;;;;;;;;;;;;;15.32;54.27;102284.88;4971976;28;19922;-53
2022/09/22 11:41:15;;;;;;;;;;;;;;;15.30;54.40;102281.47;4972406;28;19918;-53
2022/09/22 11:43:49;;;;;;;;;;;;;;;15.28;54.14;102275.38;4973258;28;19922;-54
2022/09/22 11:46:14;;;;;;;;;;;;;;;15.27;54.20;102272.81;4972385;28;19918;-57
2022/09/22 11:48:51;;;;;;;;;;;;;;;15.29;54.13;102268.28;4971432;28;19933;-53
2022/09/22 11:51:16;;;;;;;;;;;;;;;15.32;54.00;102268.97;4972621;28;19926;-53
2022/09/22 11:54:00;;;;;;;;;;;;;;;15.36;53.66;102259.06;4970166;28;19918;-56
2022/09/22 11:56:34;;;;;;;;;;;;;;;15.39;53.28;102253.59;4971137;28;19926;-54
2022/09/22 11:59:03;;;;;;;;;;;;;;;15.41;53.06;102257.03;4972589;28;19922;-53
2022/09/22 12:01:31;;;;;;;;;;;;;;;15.43;52.93;102254.31;4968714;28;20468;-53
2022/09/22 12:04:00;;;;;;;;;;;;;;;15.45;52.78;102252.41;4970479;28;19918;-54
2022/09/22 12:06:29;;;;;;;;;;;;;;;15.48;52.69;102253.09;4969527;28;19949;-53
2022/09/22 12:08:54;;;;;;;;;;;;;;;15.54;52.65;102244.78;4971465;28;19915;-56
2022/09/22 12:11:21;;;;;;;;;;;;;;;15.63;52.66;102239.94;4970439;28;19922;-53
2022/09/22 12:13:49;;;;;;;;;;;;;;;15.68;52.59;102237.88;4971444;28;19918;-54
2022/09/22 12:16:30;;;;;;;;;;;;;;;15.74;52.50;102242.84;4959463;28;19937;-53
2022/09/22 12:19:13;;;;;;;;;;;;;;;15.81;52.54;102228.28;4969064;28;20394;-54
2022/09/22 12:21:42;;;;;;;;;;;;;;;15.91;52.34;102233.13;4966649;28;20349;-53
2022/09/22 12:24:08;;;;;;;;;;;;;;;15.98;52.26;102229.16;4963885;28;19926;-54
2022/09/22 12:26:35;;;;;;;;;;;;;;;16.05;51.87;102224.34;4956791;28;19937;-54
2022/09/22 12:29:05;;;;;;;;;;;;;;;16.11;51.85;102224.84;4962394;28;20320;-54
2022/09/22 12:31:41;;;;;;;;;;;;;;;16.18;51.67;102219.19;4961155;28;19926;-54
2022/09/22 12:34:32;;;;;;;;;;;;;;;16.23;51.76;102223.28;4962570;28;19918;-54
2022/09/22 12:37:08;;;;;;;;;;;;;;;16.33;51.47;102212.13;4958344;28;20390;-56
2022/09/22 12:39:37;;;;;;;;;;;;;;;16.40;51.31;102219.66;4960369;28;20401;-54
2022/09/22 12:42:26;;;;;;;;;;;;;;;16.48;51.40;102219.19;4963395;28;19925;-55
2022/09/22 12:44:54;;;;;;;;;;;;;;;16.56;51.40;102218.75;4959777;28;20012;-55
2022/09/22 12:47:19;;;;;;;;;;;;;;;16.59;51.29;102218.53;4964860;28;20040;-56
2022/09/22 12:49:50;;;;;;;;;;;;;;;16.61;51.41;102216.66;4964213;28;20476;-53
2022/09/22 12:52:35;;;;;;;;;;;;;;;16.61;51.44;102217.53;4965142;28;19981;-55
2022/09/22 12:55:28;;;;;;;;;;;;;;;16.61;51.23;102216.66;4960247;28;21467;-58
2022/09/22 12:57:54;;;;;;;;;;;;;;;16.63;51.28;102213.91;4958795;28;19936;-54